Terminal Aerodrome Forecast
Issued by NWS Rapid City, SD

Home | Current Version | Previous Version | Graphics & Text | Print | Product List | Glossary On
Versions: 1 2 3 4 5 6 7 8 9 10 11 12 13 14 15 16 17 18 19
000
FTUS43 KUNR 121612 AAA
TAFRAP
TAF AMD
KRAP 121612Z 1216/1312 23007KT 5SM FU SKC
     FM121800 31011KT P6SM SKC
     FM130300 32020G30KT P6SM SCT200
     FM130800 32034G46KT P6SM SCT200=

USA.gov is the U.S. government's official web portal to all federal, state and local government web resources and services.